Latest METARs, TAFs and NOTAMs for LIRN


---------------------------------------------------------------------------
	(OBSERVATIONS)
LIRN 241350Z 18008KT 160V220 9999 FEW030 28/20 Q1017 NOSIG=
LIRN 241320Z 19009KT 160V240 9999 FEW030TCU 28/20 Q1017 NOSIG=
LIRN 241250Z 18009KT 140V210 CAVOK 29/18 Q1017 NOSIG=
LIRN 241220Z 18009KT 150V220 CAVOK 28/20 Q1017 NOSIG=
LIRN 241150Z 18008KT 140V220 CAVOK 28/20 Q1018 NOSIG=
LIRN 241120Z 19009KT 150V230 CAVOK 28/20 Q1018 NOSIG=
---------------------------------------------------------------------------
	(FC)
Sorry, FC For LIRN Not Found
---------------------------------------------------------------------------
	(TERMINAL AREA FORECAST)
LIRN 241100Z 2412/2512 22010KT CAVOK
    BECMG 2418/2420 VRB04KT
    BECMG 2508/2510 24010KT=
---------------------------------------------------------------------------
	(NOTAMS)


LIRN A0814/16 REF AIP AD 2 LIRN 5-3 AND 5-7 INSTRUMENT APPROACH
    PROCEDURES ILS-Z RWY 24 ILS-W RWY 24 (ATC DISCRETION) MODIFY
    MISSED APPROACH AS FLW: AS SOON AS PRACTICABLE, CLIMBING
    TO 6000FT, TURN LEFT ON TR 180DEG, NOT BEFORE 1.3NM INPL
    DME (2.1NM NPC DME) WITH IAS MAX 180 KT, TO JOIN RDL/QDR
    342 SOR VOR/NDB BOUND TO GEMMA (4000FT MCA) THEN SOR VOR/NDB
    (6000FT). 10 FEB 16:39 2016 UNTIL PERM. CREATED: 10 FEB 16:39
    2016

LIRN A0815/16 REF AIP AD 2 LIRN 5-9 INSTRUMENT APPROACH PROCEDURE
    ILS-V RWY 24 (ATC DISCRETION) MODIFY MISSED APPROACH AS FLW:
    AS SOON AS PRACTICABLE, CLIMBING TO 6000FT, TURN LEFT ON
    TR 180DEG, NOT BEFORE 3.1NM POM DME, PASSING POM DME, WITH
    IAS MAX 180 KT, TO JOIN RDL/QDR 342 SOR VOR/NDB BOUND TO
    GEMMA (4000FT MCA) THEN SOR VOR/NDB (6000FT). 10 FEB 16:40
    2016 UNTIL PERM. CREATED: 10 FEB 16:40 2016

LIRN A0816/16 REF AIP AD 2 LIRN 5-11, 5-15 AND 5-17 INSTRUMENT
    APPROACH PROCEDURES LOC-Z RWY 24 LOC-W RWY 24 (ATC DISCRETION)
    LOC-V RWY 24 (ATC DISCRETION) MODIFY MISSED APPROACH AS FLW:
    ON MAPT CLIMB TO 6000FT AND TURN LEFT ON TR 180DEG (IAS MAX
    180 KT) TO JOIN RDL/QDR 342 SOR VOR/NDB BOUND TO GEMMA (4000FT
    MCA) THEN SOR VOR/NDB (6000FT). 10 FEB 16:42 2016 UNTIL PERM.
    CREATED: 10 FEB 16:42 2016

LIRN A0817/16 REF AIP AD 2 LIRN 5-13 INSTRUMENT APPROACH PROCEDURE
    LOC-Y RWY 24 MODIFY MISSED APPROACH AS FLW: ON MAPT CLIMB
    TO 6000FT AND TURN LEFT ON TR 180DEG (IAS MAX 180 KT) TO
    JOIN RDL/QDR 156 TEA VOR/NDB BOUND TO GEMMA (4000FT MCA)
    THEN PROCEED TO MISSED APPROACH HOLDING PATTERN. HOLD ON
    RDL/QDR 156 TEA VOR/NDB BETWEEN 40NM AND 44NM TEA DME, INBOUND
    TR 336DEG, LEFT TURNS, MHA 6000FT. 10 FEB 16:42 2016 UNTIL
    PERM. CREATED: 10 FEB 16:42 2016

LIRN A0818/16 REF AIP AD 2 LIRN 5-5 INSTRUMENT APPROACH PROCEDURE
    ILS-Y RWY24 MODIFY MISSED APPROACH AS FLW: AS SOON AS PRACTICABLE,
    CLIMBING TO 6000FT, TURN LEFT ON TR 180DEG, NOT BEFORE 1.3NM
    INPL DME (2.1NM NPC DME) WITH IAS MAX 180KT, TO JOIN RDL/QDR
    156 TEA VOR/NDB BOUND TO GEMMA (4000FT MCA) THEN PROCEED
    TO MISSED APPROACH HOLDING PATTERN. HOLD ON RDL/QDR 156 TEA
    VOR/NDB BETWEEN 40NM AND 44NM TEA DME, INBOUND TR 336DEG,
    LEFT TURNS, MHA 6000FT. 10 FEB 16:43 2016 UNTIL PERM. CREATED:
    10 FEB 16:43 2016

LIRN A2229/17 CIRCLING GUIDANCE LIGHTS (CGL) RWY06 UNSERVICEABLE
    REF AIP AD 2 LIRN 2-1. 11 APR 11:02 2017 UNTIL 06 JUL 23:59
    2017 ESTIMATED. CREATED: 11 APR 11:02 2017

LIRN A2995/17 TRIGGER NOTAM-PERM AIP AIRAC AMDT 5/17 EFFECTIVE
    DATE 22 JUN 2017 NAPOLI/CAPODICHINO MINOR CHANGES OF INFORMATION
    PUBLISHED IN AD2 SECTION, PAGES 1-1 AND FOLLOWING AIRAC IS
    POSTED AND AVBL ON WEBSITE WWW.ENAV.IT. 22 JUN 00:00 2017
    UNTIL 05 JUL 23:59 2017. CREATED: 11 MAY 14:38 2017

LIRN A3207/17 ALL STOPBARS AND ALL FIXED RED LIGHTS UNSERVICEABLE
    DUE TO TECR REF AIP AD 2 LIRN 2-1. 22 MAY 09:36 2017 UNTIL
    14 JUL 23:59 2017 ESTIMATED. CREATED: 22 MAY 09:37 2017

LIRN A3332/17 PRECISION APPROACH PATH INDICATOR (PAPI) RWY24
    LEFT SIDE UNSERVICEABLE REF AIP AD 2 LIRN 1-5. 25 MAY 09:59
    2017 UNTIL 31 JUL 23:00 2017 ESTIMATED. CREATED: 25 MAY 09:59
    2017

LIRN A3572/17 ALL LIGHTS ON TWY 'H' UNSERVICEABLE DUE TO TECR
    REF AIP AD 2 LIRN 2-1. 06 JUN 09:15 2017 UNTIL 10 AUG 23:59
    2017 ESTIMATED. CREATED: 06 JUN 09:15 2017

LIRN A4067/17 TAXIWAY 'M' CLOSED REF AIP AD 2 LIRN 2-1. 22 JUN
    09:18 2017 UNTIL 20 SEP 04:00 2017 ESTIMATED. CREATED: 22
    JUN 09:18 2017

LIRN A4079/17 TEANO VOR/DME 'TEA' FREQ 112.90MHZ CH 76X REMOTE
    STATUS INDICATOR NOT AVBL REF AIP AD 2 LIRN 1-9. 22 JUN 10:44
    2017 UNTIL 18 SEP 23:59 2017 ESTIMATED. CREATED: 22 JUN 10:44
    2017

LIRN A4082/17 DME ASSOCIATED WITH ILS RWY24 UNSERVICEABLE DUE
    TO TECR REF AIP AD 2 LIRN 1-7. 22 JUN 10:47 2017 UNTIL 18
    SEP 23:59 2017 ESTIMATED. CREATED: 22 JUN 10:47 2017

LIRN A4149/17 SUP 6/16 IN FORCE FM 15 SEP 2016 EXPIRY DATE POSTPONED
    TO 30 JUN 2017 EST NAPOLI/CAPODICHINO AD: TWY TN REFURBISHING
    AND NEW TWY P STATUS OF WORKING PHASES: - PHASE 1: COMPLETED
    - PHASE 2: COMPLETED - PHASE 3: COMPLETED - PHASE 4: COMPLETED
    - PHASE 5: COMPLETED - PHASE 6: ACTIVE - PHASE 7: ACTIVE
    - PHASE 8: ACTIVE - PHASE 9: ACTIVE - PHASE 10: ACTIVE -
    PHASE 11: NOT ACT YET - PHASE 12: NOT ACT YET REF AIP AD
    2 LIRN 2-1.1/12 AND 2-5.1/12. 23 JUN 12:37 2017 UNTIL 30
    JUN 14:28 2017 ESTIMATED. CREATED: 23 JUN 12:37 2017

LIRN F0015/07 [DEFENSE ENERGY SUPPORT CENTER ADVISORY] FUEL AVAILABILITY
    NOT AVAILABLE PHONE AHEAD FOR FUEL AVAILABILITY. 12 JUL 10:20
    2020 UNTIL 01 AUG 25:20 2020

LIRN V0153/17 [US DOD PROCEDURAL NOTAM] STANDARD INSTRUMENT DEPARTURE
    (SID) NOT AUTHORIZED AGNIS 7C, DELER 7A, EDOPA 7A, GALTI
    7A, ISKIA 7A, MALOG 7A, MOLUX 7A, PEVIR 7A, POLIT 7A, TEA
    7C DEPARTURE. 19 MAY 02:59 2017 UNTIL 15 JUL 00:01 2017.
    CREATED: 19 MAY 02:59 2017

---------------------------------------------------------------------------